Weather observations for the past three days for
VIGIE/ST LUCIA
Metric (Imperial)
Date Time (ast) Wind (kph) Vis. (km) Weather Sky Cond. Temperature (ºC) Relative Humidity Wind Chill (°C) Heat Index (°C) Pressure Precipitation (cm)
Air Dwpt 6 hour altimeter (cm) sea level (mb) 1 hr 3 hr 6 hr
Max. Min.
30 19:00 E 7 0.00 Mostly Cloudy FEW023 BKN038 27 24 84% 30 0 0.0
30 18:00 E 7 0.00 Mostly Cloudy FEW019CB BKN036 27 24 84% 30 0 0.0
30 17:00 E 9 0.00 Mostly Cloudy FEW017CB BKN036 27 24 84% 30 0 0.0
30 16:00 E 7 0.00 Mostly Cloudy FEW019CB BKN036 27 24 84% 30 0 0.0
30 15:00 S 7 0.00 Light Showers Rain Showers Rain FEW017CB SCT022 BKN036 28 25 84% 33 0 0.0
30 14:00 SE 30 G 52 0.00 Showers Rain FEW018CB BKN022 32 25 67% 39 0 0.0
30 13:00 SE 13 0.00 Partly Cloudy FEW018CB SCT022 31 24 66% 37 0 0.0
30 12:00 SE 15 0.00 Mostly Cloudy FEW018CB SCT022 BKN038 31 24 66% 37 0 0.0
30 11:00 SE 15 0.00 Mostly Cloudy FEW018CB SCT022 BKN038 30 25 75% 36 0 0.0
30 10:00 S 9 0.00 Light Showers Rain FEW018CB BKN022 28 26 89% 34 0 0.0
30 09:00 S 11 0.00 Light Showers Rain FEW018CB BKN022 28 25 84% 33 0 0.0
30 08:00 Calm 0.00 Partly Cloudy FEW022 SCT038 29 26 84% 36 0 0.0
30 05:00 Calm 0.00 Partly Cloudy FEW018CB SCT022 26 25 94% 28 0 0.0
29 22:00 SE 6 0.00 Mostly Cloudy BKN020 27 27 100% 32 0 0.0
29 21:00 E 9 0.00 Partly Cloudy SCT021 28 26 89% 34 0 0.0
29 20:00 E 9 0.00 A Few Clouds FEW021 28 26 89% 34 0 0.0
29 19:00 E 7 0.00 A Few Clouds FEW021 28 26 89% 34 0 0.0
29 18:00 E 11 0.00 Partly Cloudy SCT021 29 27 89% 37 0 0.0
29 17:00 E 11 0.00 Mostly Cloudy BKN021 30 26 79% 37 0 0.0
29 16:00 NE 9 0.00 Partly Cloudy SCT023 31 26 75% 39 0 0.0
29 15:00 E 15 0.00 Mostly Cloudy BKN022 31 26 75% 39 0 0.0
29 14:00 NE 17 0.00 Light Showers Rain BKN022 31 26 75% 39 0 0.0
29 13:00 NE 19 0.00 Partly Cloudy SCT022 31 25 70% 38 0 0.0
29 12:00 NE 13 0.00 Mostly Cloudy BKN022 31 25 70% 38 0 0.0
29 11:00 NE 19 0.00 Partly Cloudy SCT022 30 25 75% 36 0 0.0
29 10:00 NE 19 0.00 Mostly Cloudy BKN022 30 25 75% 36 0 0.0
29 09:00 E 17 0.00 Mostly Cloudy BKN022 29 25 79% 35 0 0.0
29 08:00 E 13 0.00 Partly Cloudy SCT020 29 25 79% 35 0 0.0
28 20:00 E 13 0.00 Light Showers Rain BKN021 27 26 94% 31 0 0.0
28 19:00 E 19 0.00 Partly Cloudy SCT021 28 25 84% 33 0 0.0
28 18:00 E 13 0.00 Partly Cloudy SCT021 29 26 84% 36 0 0.0
28 17:00 E 15 0.00 Partly Cloudy SCT021 29 25 79% 35 0 0.0
28 16:00 E 17 0.00 Mostly Cloudy FEW017CB BKN020 28 26 89% 34 0 0.0
28 15:00 E 11 0.00 Showers Rain FEW017CB FEW018TCU BKN020 28 26 89% 34 0 0.0
28 14:00 E 19 0.00 Light Showers Rain BKN020 30 27 84% 39 0 0.0
28 13:00 E 15 0.00 Mostly Cloudy BKN021 29 26 84% 36 0 0.0
28 12:00 E 22 0.00 Showers Rain FEW018 BKN022 29 26 84% 36 0 0.0
28 11:00 E 22 0.00 Mostly Cloudy BKN020 28 25 84% 33 0 0.0
28 10:00 E 24 0.00 Showers Rain BKN020 27 25 89% 31 0 0.0
28 09:00 E 15 0.00 Partly Cloudy SCT020 28 25 84% 33 0 0.0
28 08:00 E 11 0.00 Showers Rain FEW017TCU SCT024 29 25 79% 35 0 0.0
Date Time (ast) Wind (kph) Vis. (km) Weather Sky Cond. Air Dwpt Max. Min. Relative Humidity Wind Chill (°C) Heat Index (°C) altimeter (cm) sea level (mb) 1 hr 3 hr 6 hr
6 hour
Temperature (ºC) Pressure Precipitation (cm)